sensor_id;sensor_type;location;lat;lon;timestamp;P1;durP1;ratioP1;P2;durP2;ratioP2
71767;SDS011;59604;52.138;5.446;2022-08-19T00:01:51;8.57;;;4.78;;
71767;SDS011;59604;52.138;5.446;2022-08-19T00:04:21;9.05;;;4.72;;
71767;SDS011;59604;52.138;5.446;2022-08-19T00:06:50;11.23;;;5.50;;
71767;SDS011;59604;52.138;5.446;2022-08-19T00:09:18;8.60;;;5.35;;
71767;SDS011;59604;52.138;5.446;2022-08-19T00:11:46;9.80;;;5.72;;
71767;SDS011;59604;52.138;5.446;2022-08-19T00:14:13;11.27;;;5.68;;
71767;SDS011;59604;52.138;5.446;2022-08-19T00:16:42;9.43;;;5.88;;
71767;SDS011;59604;52.138;5.446;2022-08-19T00:19:10;12.05;;;6.18;;
71767;SDS011;59604;52.138;5.446;2022-08-19T00:21:37;10.73;;;6.38;;
71767;SDS011;59604;52.138;5.446;2022-08-19T00:24:09;10.55;;;5.85;;
71767;SDS011;59604;52.138;5.446;2022-08-19T00:26:37;9.98;;;5.88;;
71767;SDS011;59604;52.138;5.446;2022-08-19T00:29:05;12.43;;;6.78;;
71767;SDS011;59604;52.138;5.446;2022-08-19T00:31:33;6.22;;;3.63;;
71767;SDS011;59604;52.138;5.446;2022-08-19T00:34:00;4.80;;;2.80;;
71767;SDS011;59604;52.138;5.446;2022-08-19T00:36:26;6.15;;;3.03;;
71767;SDS011;59604;52.138;5.446;2022-08-19T00:38:54;5.45;;;2.53;;
71767;SDS011;59604;52.138;5.446;2022-08-19T00:41:22;5.90;;;2.58;;
71767;SDS011;59604;52.138;5.446;2022-08-19T00:44:09;6.38;;;3.35;;
71767;SDS011;59604;52.138;5.446;2022-08-19T00:46:40;6.65;;;3.47;;
71767;SDS011;59604;52.138;5.446;2022-08-19T00:51:55;6.20;;;2.83;;
71767;SDS011;59604;52.138;5.446;2022-08-19T00:54:29;5.95;;;2.65;;
71767;SDS011;59604;52.138;5.446;2022-08-19T00:56:58;6.13;;;3.05;;
71767;SDS011;59604;52.138;5.446;2022-08-19T00:59:25;5.80;;;3.38;;
71767;SDS011;59604;52.138;5.446;2022-08-19T01:02:14;7.80;;;4.13;;
71767;SDS011;59604;52.138;5.446;2022-08-19T01:04:42;7.20;;;4.15;;
71767;SDS011;59604;52.138;5.446;2022-08-19T01:07:08;7.50;;;3.83;;
71767;SDS011;59604;52.138;5.446;2022-08-19T01:09:40;7.75;;;4.65;;
71767;SDS011;59604;52.138;5.446;2022-08-19T01:12:06;10.15;;;5.22;;
71767;SDS011;59604;52.138;5.446;2022-08-19T01:14:34;10.35;;;5.45;;
71767;SDS011;59604;52.138;5.446;2022-08-19T01:17:05;8.60;;;5.15;;
71767;SDS011;59604;52.138;5.446;2022-08-19T01:19:37;11.57;;;5.43;;
71767;SDS011;59604;52.138;5.446;2022-08-19T01:22:14;9.20;;;5.68;;
71767;SDS011;59604;52.138;5.446;2022-08-19T01:27:22;10.63;;;5.43;;
71767;SDS011;59604;52.138;5.446;2022-08-19T01:29:49;11.10;;;5.72;;
71767;SDS011;59604;52.138;5.446;2022-08-19T01:32:16;10.15;;;5.70;;
71767;SDS011;59604;52.138;5.446;2022-08-19T01:34:59;11.85;;;5.88;;
71767;SDS011;59604;52.138;5.446;2022-08-19T01:37:27;9.98;;;5.53;;
71767;SDS011;59604;52.138;5.446;2022-08-19T01:39:55;9.70;;;5.13;;
71767;SDS011;59604;52.138;5.446;2022-08-19T01:42:21;9.15;;;4.75;;
71767;SDS011;59604;52.138;5.446;2022-08-19T01:49:48;11.02;;;4.28;;
71767;SDS011;59604;52.138;5.446;2022-08-19T01:52:15;8.77;;;4.63;;
71767;SDS011;59604;52.138;5.446;2022-08-19T01:54:41;8.88;;;4.70;;
71767;SDS011;59604;52.138;5.446;2022-08-19T01:57:09;9.27;;;5.15;;
71767;SDS011;59604;52.138;5.446;2022-08-19T01:59:39;8.88;;;4.75;;
71767;SDS011;59604;52.138;5.446;2022-08-19T02:02:06;8.07;;;4.70;;
71767;SDS011;59604;52.138;5.446;2022-08-19T02:07:01;7.90;;;4.53;;
71767;SDS011;59604;52.138;5.446;2022-08-19T02:09:28;8.80;;;4.65;;
71767;SDS011;59604;52.138;5.446;2022-08-19T02:11:54;8.68;;;4.63;;
71767;SDS011;59604;52.138;5.446;2022-08-19T02:14:21;9.40;;;4.25;;
71767;SDS011;59604;52.138;5.446;2022-08-19T02:16:47;8.20;;;3.88;;
71767;SDS011;59604;52.138;5.446;2022-08-19T02:19:14;6.45;;;3.67;;
71767;SDS011;59604;52.138;5.446;2022-08-19T02:21:40;7.30;;;3.85;;
71767;SDS011;59604;52.138;5.446;2022-08-19T02:24:07;8.05;;;3.35;;
71767;SDS011;59604;52.138;5.446;2022-08-19T02:26:33;8.23;;;3.40;;
71767;SDS011;59604;52.138;5.446;2022-08-19T02:29:00;6.78;;;3.25;;
71767;SDS011;59604;52.138;5.446;2022-08-19T02:31:26;6.93;;;3.45;;
71767;SDS011;59604;52.138;5.446;2022-08-19T02:33:54;7.43;;;2.75;;
71767;SDS011;59604;52.138;5.446;2022-08-19T02:36:22;7.30;;;3.50;;
71767;SDS011;59604;52.138;5.446;2022-08-19T02:41:22;8.68;;;3.13;;
71767;SDS011;59604;52.138;5.446;2022-08-19T02:43:52;8.18;;;3.55;;
71767;SDS011;59604;52.138;5.446;2022-08-19T02:46:45;7.15;;;3.60;;
71767;SDS011;59604;52.138;5.446;2022-08-19T02:49:13;6.68;;;3.58;;
71767;SDS011;59604;52.138;5.446;2022-08-19T02:51:43;6.95;;;3.13;;
71767;SDS011;59604;52.138;5.446;2022-08-19T02:54:12;6.07;;;3.22;;
71767;SDS011;59604;52.138;5.446;2022-08-19T02:56:39;8.38;;;3.47;;
71767;SDS011;59604;52.138;5.446;2022-08-19T02:59:07;7.97;;;3.20;;
71767;SDS011;59604;52.138;5.446;2022-08-19T03:01:37;7.15;;;3.42;;
71767;SDS011;59604;52.138;5.446;2022-08-19T03:04:06;9.73;;;3.80;;
71767;SDS011;59604;52.138;5.446;2022-08-19T03:09:02;7.00;;;3.40;;
71767;SDS011;59604;52.138;5.446;2022-08-19T03:11:29;9.70;;;3.85;;
71767;SDS011;59604;52.138;5.446;2022-08-19T03:16:25;8.70;;;4.30;;
71767;SDS011;59604;52.138;5.446;2022-08-19T03:18:58;10.35;;;4.50;;
71767;SDS011;59604;52.138;5.446;2022-08-19T03:21:29;8.70;;;4.30;;
71767;SDS011;59604;52.138;5.446;2022-08-19T03:23:59;7.88;;;3.28;;
71767;SDS011;59604;52.138;5.446;2022-08-19T03:26:28;8.50;;;3.80;;
71767;SDS011;59604;52.138;5.446;2022-08-19T03:28:55;9.90;;;4.05;;
71767;SDS011;59604;52.138;5.446;2022-08-19T03:31:24;11.07;;;4.78;;
71767;SDS011;59604;52.138;5.446;2022-08-19T03:34:14;14.32;;;4.43;;
71767;SDS011;59604;52.138;5.446;2022-08-19T03:36:44;10.55;;;4.25;;
71767;SDS011;59604;52.138;5.446;2022-08-19T03:39:12;19.00;;;4.43;;
71767;SDS011;59604;52.138;5.446;2022-08-19T03:41:40;8.75;;;4.40;;
71767;SDS011;59604;52.138;5.446;2022-08-19T03:44:14;8.30;;;4.07;;
71767;SDS011;59604;52.138;5.446;2022-08-19T03:46:54;8.93;;;4.28;;
71767;SDS011;59604;52.138;5.446;2022-08-19T03:49:24;10.63;;;4.57;;
71767;SDS011;59604;52.138;5.446;2022-08-19T03:51:54;9.90;;;4.93;;
71767;SDS011;59604;52.138;5.446;2022-08-19T03:54:23;10.32;;;4.78;;
71767;SDS011;59604;52.138;5.446;2022-08-19T03:56:51;11.05;;;4.88;;
71767;SDS011;59604;52.138;5.446;2022-08-19T03:59:21;12.43;;;4.75;;
71767;SDS011;59604;52.138;5.446;2022-08-19T04:01:56;11.10;;;4.60;;
71767;SDS011;59604;52.138;5.446;2022-08-19T04:04:26;7.80;;;4.05;;
71767;SDS011;59604;52.138;5.446;2022-08-19T04:06:54;10.27;;;4.47;;
71767;SDS011;59604;52.138;5.446;2022-08-19T04:09:22;10.75;;;4.78;;
71767;SDS011;59604;52.138;5.446;2022-08-19T04:11:50;10.07;;;4.57;;
71767;SDS011;59604;52.138;5.446;2022-08-19T04:14:21;25.50;;;5.43;;
71767;SDS011;59604;52.138;5.446;2022-08-19T04:16:50;17.60;;;5.13;;
71767;SDS011;59604;52.138;5.446;2022-08-19T04:19:18;17.90;;;5.53;;
71767;SDS011;59604;52.138;5.446;2022-08-19T04:21:47;13.23;;;5.30;;
71767;SDS011;59604;52.138;5.446;2022-08-19T04:24:15;11.10;;;5.25;;
71767;SDS011;59604;52.138;5.446;2022-08-19T04:26:42;11.43;;;5.18;;
71767;SDS011;59604;52.138;5.446;2022-08-19T04:29:14;11.75;;;5.18;;
71767;SDS011;59604;52.138;5.446;2022-08-19T04:31:43;11.48;;;5.75;;
71767;SDS011;59604;52.138;5.446;2022-08-19T04:34:13;11.30;;;5.85;;
71767;SDS011;59604;52.138;5.446;2022-08-19T04:36:42;12.07;;;5.68;;
71767;SDS011;59604;52.138;5.446;2022-08-19T04:39:15;11.57;;;5.93;;
71767;SDS011;59604;52.138;5.446;2022-08-19T04:41:43;12.05;;;6.38;;
71767;SDS011;59604;52.138;5.446;2022-08-19T04:44:30;14.23;;;6.93;;
71767;SDS011;59604;52.138;5.446;2022-08-19T04:46:58;13.30;;;6.32;;
71767;SDS011;59604;52.138;5.446;2022-08-19T04:51:53;14.10;;;7.00;;
71767;SDS011;59604;52.138;5.446;2022-08-19T04:54:22;14.35;;;6.80;;
71767;SDS011;59604;52.138;5.446;2022-08-19T04:57:05;12.65;;;6.80;;
71767;SDS011;59604;52.138;5.446;2022-08-19T04:59:34;14.80;;;6.97;;
71767;SDS011;59604;52.138;5.446;2022-08-19T05:02:00;14.63;;;6.90;;
71767;SDS011;59604;52.138;5.446;2022-08-19T05:04:27;13.13;;;6.32;;
71767;SDS011;59604;52.138;5.446;2022-08-19T05:06:58;14.23;;;7.00;;
71767;SDS011;59604;52.138;5.446;2022-08-19T05:09:27;15.68;;;7.07;;
71767;SDS011;59604;52.138;5.446;2022-08-19T05:12:15;11.85;;;6.38;;
71767;SDS011;59604;52.138;5.446;2022-08-19T05:14:42;12.60;;;6.68;;
71767;SDS011;59604;52.138;5.446;2022-08-19T05:17:09;13.23;;;6.47;;
71767;SDS011;59604;52.138;5.446;2022-08-19T05:19:52;14.73;;;7.15;;
71767;SDS011;59604;52.138;5.446;2022-08-19T05:22:38;12.07;;;6.30;;
71767;SDS011;59604;52.138;5.446;2022-08-19T05:25:06;13.50;;;6.88;;
71767;SDS011;59604;52.138;5.446;2022-08-19T05:27:39;14.23;;;7.57;;
71767;SDS011;59604;52.138;5.446;2022-08-19T05:32:34;13.10;;;6.80;;
71767;SDS011;59604;52.138;5.446;2022-08-19T05:35:01;14.43;;;7.40;;
71767;SDS011;59604;52.138;5.446;2022-08-19T05:37:27;13.82;;;7.18;;
71767;SDS011;59604;52.138;5.446;2022-08-19T05:39:54;14.82;;;7.35;;
71767;SDS011;59604;52.138;5.446;2022-08-19T05:42:21;13.85;;;7.32;;
71767;SDS011;59604;52.138;5.446;2022-08-19T05:47:16;13.85;;;6.80;;
71767;SDS011;59604;52.138;5.446;2022-08-19T05:49:44;13.50;;;7.28;;
71767;SDS011;59604;52.138;5.446;2022-08-19T05:52:12;11.55;;;6.22;;
71767;SDS011;59604;52.138;5.446;2022-08-19T05:54:44;15.38;;;7.63;;
71767;SDS011;59604;52.138;5.446;2022-08-19T05:57:16;14.13;;;7.30;;
71767;SDS011;59604;52.138;5.446;2022-08-19T06:04:51;11.20;;;5.75;;
71767;SDS011;59604;52.138;5.446;2022-08-19T06:07:17;14.88;;;7.10;;
71767;SDS011;59604;52.138;5.446;2022-08-19T06:09:45;14.85;;;7.65;;
71767;SDS011;59604;52.138;5.446;2022-08-19T06:12:30;15.35;;;7.55;;
71767;SDS011;59604;52.138;5.446;2022-08-19T06:15:02;21.02;;;9.48;;
71767;SDS011;59604;52.138;5.446;2022-08-19T06:17:32;21.20;;;10.98;;
71767;SDS011;59604;52.138;5.446;2022-08-19T06:20:02;23.42;;;10.52;;
71767;SDS011;59604;52.138;5.446;2022-08-19T06:22:30;19.92;;;9.57;;
71767;SDS011;59604;52.138;5.446;2022-08-19T06:24:59;26.05;;;11.82;;
71767;SDS011;59604;52.138;5.446;2022-08-19T06:27:26;26.15;;;11.95;;
71767;SDS011;59604;52.138;5.446;2022-08-19T06:29:52;29.40;;;13.43;;
71767;SDS011;59604;52.138;5.446;2022-08-19T06:32:20;31.13;;;13.77;;
71767;SDS011;59604;52.138;5.446;2022-08-19T06:34:46;28.25;;;12.68;;
71767;SDS011;59604;52.138;5.446;2022-08-19T06:37:13;28.60;;;12.77;;
71767;SDS011;59604;52.138;5.446;2022-08-19T06:39:41;32.38;;;14.07;;
71767;SDS011;59604;52.138;5.446;2022-08-19T06:42:09;33.97;;;15.02;;
71767;SDS011;59604;52.138;5.446;2022-08-19T06:44:40;33.13;;;14.15;;
71767;SDS011;59604;52.138;5.446;2022-08-19T06:47:15;25.95;;;11.82;;
71767;SDS011;59604;52.138;5.446;2022-08-19T06:49:57;31.80;;;15.40;;
71767;SDS011;59604;52.138;5.446;2022-08-19T06:52:31;35.20;;;15.82;;
71767;SDS011;59604;52.138;5.446;2022-08-19T06:55:02;41.17;;;19.05;;
71767;SDS011;59604;52.138;5.446;2022-08-19T06:57:31;39.40;;;18.08;;
71767;SDS011;59604;52.138;5.446;2022-08-19T06:59:59;39.80;;;18.92;;
71767;SDS011;59604;52.138;5.446;2022-08-19T07:02:26;46.00;;;19.88;;
71767;SDS011;59604;52.138;5.446;2022-08-19T07:04:53;48.50;;;21.02;;
71767;SDS011;59604;52.138;5.446;2022-08-19T07:07:20;48.72;;;20.02;;
71767;SDS011;59604;52.138;5.446;2022-08-19T07:09:49;46.92;;;19.33;;
71767;SDS011;59604;52.138;5.446;2022-08-19T07:12:25;45.45;;;18.90;;
71767;SDS011;59604;52.138;5.446;2022-08-19T07:14:55;51.60;;;18.38;;
71767;SDS011;59604;52.138;5.446;2022-08-19T07:17:22;52.33;;;19.05;;
71767;SDS011;59604;52.138;5.446;2022-08-19T07:19:50;50.17;;;19.33;;
71767;SDS011;59604;52.138;5.446;2022-08-19T07:22:19;49.63;;;19.83;;
71767;SDS011;59604;52.138;5.446;2022-08-19T07:24:49;51.55;;;20.85;;
71767;SDS011;59604;52.138;5.446;2022-08-19T07:29:49;50.30;;;21.27;;
71767;SDS011;59604;52.138;5.446;2022-08-19T07:32:22;51.35;;;22.25;;
71767;SDS011;59604;52.138;5.446;2022-08-19T07:34:52;57.25;;;23.40;;
71767;SDS011;59604;52.138;5.446;2022-08-19T07:37:18;55.10;;;23.55;;
71767;SDS011;59604;52.138;5.446;2022-08-19T07:39:45;54.92;;;23.67;;
71767;SDS011;59604;52.138;5.446;2022-08-19T07:42:11;54.10;;;23.27;;
71767;SDS011;59604;52.138;5.446;2022-08-19T07:44:38;47.88;;;20.58;;
71767;SDS011;59604;52.138;5.446;2022-08-19T07:47:06;50.10;;;23.45;;
71767;SDS011;59604;52.138;5.446;2022-08-19T07:49:53;51.85;;;24.33;;
71767;SDS011;59604;52.138;5.446;2022-08-19T07:52:19;52.05;;;23.48;;
71767;SDS011;59604;52.138;5.446;2022-08-19T07:54:46;52.88;;;23.75;;
71767;SDS011;59604;52.138;5.446;2022-08-19T07:57:12;49.00;;;22.00;;
71767;SDS011;59604;52.138;5.446;2022-08-19T07:59:39;48.33;;;23.35;;
71767;SDS011;59604;52.138;5.446;2022-08-19T08:02:06;47.03;;;24.17;;
71767;SDS011;59604;52.138;5.446;2022-08-19T08:04:34;48.40;;;23.35;;
71767;SDS011;59604;52.138;5.446;2022-08-19T08:07:19;45.00;;;22.42;;
71767;SDS011;59604;52.138;5.446;2022-08-19T08:10:11;40.65;;;20.05;;
71767;SDS011;59604;52.138;5.446;2022-08-19T08:12:46;40.05;;;20.55;;
71767;SDS011;59604;52.138;5.446;2022-08-19T08:15:34;37.70;;;19.17;;
71767;SDS011;59604;52.138;5.446;2022-08-19T08:18:07;36.75;;;18.70;;
71767;SDS011;59604;52.138;5.446;2022-08-19T08:20:34;34.22;;;18.20;;
71767;SDS011;59604;52.138;5.446;2022-08-19T08:23:01;37.55;;;19.08;;
71767;SDS011;59604;52.138;5.446;2022-08-19T08:25:46;39.08;;;18.95;;
71767;SDS011;59604;52.138;5.446;2022-08-19T08:28:15;37.40;;;18.73;;
71767;SDS011;59604;52.138;5.446;2022-08-19T08:30:43;34.92;;;18.15;;
71767;SDS011;59604;52.138;5.446;2022-08-19T08:33:12;36.95;;;18.35;;
71767;SDS011;59604;52.138;5.446;2022-08-19T08:35:40;32.22;;;17.92;;
71767;SDS011;59604;52.138;5.446;2022-08-19T08:38:12;32.47;;;17.38;;
71767;SDS011;59604;52.138;5.446;2022-08-19T08:40:42;32.15;;;17.05;;
71767;SDS011;59604;52.138;5.446;2022-08-19T08:43:21;36.30;;;17.67;;
71767;SDS011;59604;52.138;5.446;2022-08-19T08:46:01;32.10;;;17.38;;
71767;SDS011;59604;52.138;5.446;2022-08-19T08:48:37;30.30;;;16.30;;
71767;SDS011;59604;52.138;5.446;2022-08-19T08:51:40;32.90;;;16.70;;
71767;SDS011;59604;52.138;5.446;2022-08-19T08:54:24;30.45;;;15.68;;
71767;SDS011;59604;52.138;5.446;2022-08-19T08:57:02;31.58;;;16.35;;
71767;SDS011;59604;52.138;5.446;2022-08-19T08:59:34;28.75;;;16.17;;
71767;SDS011;59604;52.138;5.446;2022-08-19T09:02:05;31.67;;;16.20;;
71767;SDS011;59604;52.138;5.446;2022-08-19T09:04:31;29.52;;;15.75;;
71767;SDS011;59604;52.138;5.446;2022-08-19T09:10:13;28.00;;;14.85;;
71767;SDS011;59604;52.138;5.446;2022-08-19T09:16:07;26.00;;;14.05;;
71767;SDS011;59604;52.138;5.446;2022-08-19T09:18:17;25.33;;;13.48;;
71767;SDS011;59604;52.138;5.446;2022-08-19T09:20:45;25.50;;;13.43;;
71767;SDS011;59604;52.138;5.446;2022-08-19T09:23:13;24.15;;;13.50;;
71767;SDS011;59604;52.138;5.446;2022-08-19T09:25:40;27.30;;;14.02;;
71767;SDS011;59604;52.138;5.446;2022-08-19T09:28:07;24.65;;;12.90;;
71767;SDS011;59604;52.138;5.446;2022-08-19T09:30:47;22.60;;;13.32;;
71767;SDS011;59604;52.138;5.446;2022-08-19T09:33:14;26.35;;;14.52;;
71767;SDS011;59604;52.138;5.446;2022-08-19T09:38:17;24.85;;;12.95;;
71767;SDS011;59604;52.138;5.446;2022-08-19T09:40:44;22.65;;;12.60;;
71767;SDS011;59604;52.138;5.446;2022-08-19T09:43:11;23.73;;;12.95;;
71767;SDS011;59604;52.138;5.446;2022-08-19T09:45:38;25.17;;;12.85;;
71767;SDS011;59604;52.138;5.446;2022-08-19T09:48:05;22.15;;;12.38;;
71767;SDS011;59604;52.138;5.446;2022-08-19T09:50:32;20.80;;;11.77;;
71767;SDS011;59604;52.138;5.446;2022-08-19T09:53:00;23.48;;;12.48;;
71767;SDS011;59604;52.138;5.446;2022-08-19T09:55:26;22.02;;;12.38;;
71767;SDS011;59604;52.138;5.446;2022-08-19T09:57:58;21.55;;;11.25;;
71767;SDS011;59604;52.138;5.446;2022-08-19T10:00:29;20.00;;;11.48;;
71767;SDS011;59604;52.138;5.446;2022-08-19T10:02:57;21.05;;;11.32;;
71767;SDS011;59604;52.138;5.446;2022-08-19T10:05:23;20.45;;;11.00;;
71767;SDS011;59604;52.138;5.446;2022-08-19T10:08:09;16.98;;;10.10;;
71767;SDS011;59604;52.138;5.446;2022-08-19T10:10:39;19.63;;;10.50;;
71767;SDS011;59604;52.138;5.446;2022-08-19T10:13:12;19.30;;;9.88;;
71767;SDS011;59604;52.138;5.446;2022-08-19T10:15:40;17.63;;;10.18;;
71767;SDS011;59604;52.138;5.446;2022-08-19T10:18:12;20.00;;;11.25;;
71767;SDS011;59604;52.138;5.446;2022-08-19T10:20:39;16.95;;;9.75;;
71767;SDS011;59604;52.138;5.446;2022-08-19T10:23:08;19.58;;;10.85;;
71767;SDS011;59604;52.138;5.446;2022-08-19T10:25:35;16.70;;;10.38;;
71767;SDS011;59604;52.138;5.446;2022-08-19T10:28:03;18.33;;;10.30;;
71767;SDS011;59604;52.138;5.446;2022-08-19T10:30:35;18.92;;;10.85;;
71767;SDS011;59604;52.138;5.446;2022-08-19T10:33:03;17.77;;;10.90;;
71767;SDS011;59604;52.138;5.446;2022-08-19T10:35:35;17.52;;;11.15;;
71767;SDS011;59604;52.138;5.446;2022-08-19T10:38:23;17.30;;;11.07;;
71767;SDS011;59604;52.138;5.446;2022-08-19T10:40:58;16.80;;;11.98;;
71767;SDS011;59604;52.138;5.446;2022-08-19T10:43:32;17.92;;;11.73;;
71767;SDS011;59604;52.138;5.446;2022-08-19T10:46:01;18.42;;;12.05;;
71767;SDS011;59604;52.138;5.446;2022-08-19T10:48:28;21.63;;;13.05;;
71767;SDS011;59604;52.138;5.446;2022-08-19T10:50:56;19.10;;;12.38;;
71767;SDS011;59604;52.138;5.446;2022-08-19T10:53:48;20.55;;;12.52;;
71767;SDS011;59604;52.138;5.446;2022-08-19T10:56:14;21.05;;;13.45;;
71767;SDS011;59604;52.138;5.446;2022-08-19T10:58:59;22.00;;;13.20;;
71767;SDS011;59604;52.138;5.446;2022-08-19T11:01:27;19.63;;;12.82;;
71767;SDS011;59604;52.138;5.446;2022-08-19T11:03:56;21.05;;;13.68;;
71767;SDS011;59604;52.138;5.446;2022-08-19T11:06:23;20.70;;;13.43;;
71767;SDS011;59604;52.138;5.446;2022-08-19T11:08:53;22.35;;;14.57;;
71767;SDS011;59604;52.138;5.446;2022-08-19T11:11:20;21.67;;;14.07;;
71767;SDS011;59604;52.138;5.446;2022-08-19T11:16:18;19.85;;;13.57;;
71767;SDS011;59604;52.138;5.446;2022-08-19T11:18:51;23.33;;;15.32;;
71767;SDS011;59604;52.138;5.446;2022-08-19T11:21:21;26.35;;;16.35;;
71767;SDS011;59604;52.138;5.446;2022-08-19T11:23:54;21.67;;;13.85;;
71767;SDS011;59604;52.138;5.446;2022-08-19T11:26:23;23.10;;;14.95;;
71767;SDS011;59604;52.138;5.446;2022-08-19T11:28:50;22.58;;;14.75;;
71767;SDS011;59604;52.138;5.446;2022-08-19T11:31:20;22.77;;;15.18;;
71767;SDS011;59604;52.138;5.446;2022-08-19T11:33:55;23.10;;;15.40;;
71767;SDS011;59604;52.138;5.446;2022-08-19T11:36:23;25.15;;;16.13;;
71767;SDS011;59604;52.138;5.446;2022-08-19T11:38:50;27.20;;;16.95;;
71767;SDS011;59604;52.138;5.446;2022-08-19T11:41:18;27.50;;;17.48;;
71767;SDS011;59604;52.138;5.446;2022-08-19T11:43:46;24.08;;;15.50;;
71767;SDS011;59604;52.138;5.446;2022-08-19T11:46:13;29.08;;;16.48;;
71767;SDS011;59604;52.138;5.446;2022-08-19T11:48:41;24.95;;;15.75;;
71767;SDS011;59604;52.138;5.446;2022-08-19T11:51:08;23.67;;;15.32;;
71767;SDS011;59604;52.138;5.446;2022-08-19T11:53:36;26.25;;;15.75;;
71767;SDS011;59604;52.138;5.446;2022-08-19T11:56:06;30.08;;;18.52;;
71767;SDS011;59604;52.138;5.446;2022-08-19T11:58:34;31.60;;;16.52;;
71767;SDS011;59604;52.138;5.446;2022-08-19T12:01:04;28.45;;;17.40;;
71767;SDS011;59604;52.138;5.446;2022-08-19T12:03:33;29.45;;;16.85;;
71767;SDS011;59604;52.138;5.446;2022-08-19T12:06:07;30.52;;;17.42;;
71767;SDS011;59604;52.138;5.446;2022-08-19T12:08:35;26.45;;;16.92;;
71767;SDS011;59604;52.138;5.446;2022-08-19T12:11:02;28.80;;;17.05;;
71767;SDS011;59604;52.138;5.446;2022-08-19T12:13:29;27.63;;;16.83;;
71767;SDS011;59604;52.138;5.446;2022-08-19T12:15:56;31.13;;;18.35;;
71767;SDS011;59604;52.138;5.446;2022-08-19T12:20:51;28.00;;;16.88;;
71767;SDS011;59604;52.138;5.446;2022-08-19T12:23:20;27.08;;;17.00;;
71767;SDS011;59604;52.138;5.446;2022-08-19T12:25:47;27.60;;;16.83;;
71767;SDS011;59604;52.138;5.446;2022-08-19T12:28:21;25.65;;;16.35;;
71767;SDS011;59604;52.138;5.446;2022-08-19T12:30:50;24.88;;;16.55;;
71767;SDS011;59604;52.138;5.446;2022-08-19T12:33:18;26.95;;;16.65;;
71767;SDS011;59604;52.138;5.446;2022-08-19T12:35:45;23.33;;;15.35;;
71767;SDS011;59604;52.138;5.446;2022-08-19T12:38:13;26.17;;;15.43;;
71767;SDS011;59604;52.138;5.446;2022-08-19T12:40:40;22.65;;;14.50;;
71767;SDS011;59604;52.138;5.446;2022-08-19T12:43:07;24.65;;;15.98;;
71767;SDS011;59604;52.138;5.446;2022-08-19T12:45:34;25.33;;;16.05;;
71767;SDS011;59604;52.138;5.446;2022-08-19T12:48:02;24.85;;;16.30;;
71767;SDS011;59604;52.138;5.446;2022-08-19T12:50:50;22.65;;;15.00;;
71767;SDS011;59604;52.138;5.446;2022-08-19T12:53:16;23.48;;;15.98;;
71767;SDS011;59604;52.138;5.446;2022-08-19T12:55:43;21.17;;;14.32;;
71767;SDS011;59604;52.138;5.446;2022-08-19T12:58:10;14.77;;;11.05;;
71767;SDS011;59604;52.138;5.446;2022-08-19T13:00:36;15.25;;;10.65;;
71767;SDS011;59604;52.138;5.446;2022-08-19T13:03:03;18.88;;;12.38;;
71767;SDS011;59604;52.138;5.446;2022-08-19T13:05:30;15.88;;;11.60;;
71767;SDS011;59604;52.138;5.446;2022-08-19T13:07:59;17.58;;;11.98;;
71767;SDS011;59604;52.138;5.446;2022-08-19T13:10:28;18.42;;;12.43;;
71767;SDS011;59604;52.138;5.446;2022-08-19T13:13:04;18.33;;;12.88;;
71767;SDS011;59604;52.138;5.446;2022-08-19T13:15:33;19.25;;;12.40;;
71767;SDS011;59604;52.138;5.446;2022-08-19T13:18:01;15.18;;;10.98;;
71767;SDS011;59604;52.138;5.446;2022-08-19T13:20:28;16.73;;;11.45;;
71767;SDS011;59604;52.138;5.446;2022-08-19T13:22:55;15.02;;;10.88;;
71767;SDS011;59604;52.138;5.446;2022-08-19T13:25:23;16.17;;;11.00;;
71767;SDS011;59604;52.138;5.446;2022-08-19T13:27:51;15.30;;;11.25;;
71767;SDS011;59604;52.138;5.446;2022-08-19T13:30:19;19.13;;;11.50;;
71767;SDS011;59604;52.138;5.446;2022-08-19T13:33:05;15.55;;;11.52;;
71767;SDS011;59604;52.138;5.446;2022-08-19T13:35:41;19.67;;;14.07;;
71767;SDS011;59604;52.138;5.446;2022-08-19T13:38:18;21.58;;;15.60;;
71767;SDS011;59604;52.138;5.446;2022-08-19T13:40:47;21.17;;;15.23;;
71767;SDS011;59604;52.138;5.446;2022-08-19T13:43:16;23.80;;;15.57;;
71767;SDS011;59604;52.138;5.446;2022-08-19T13:45:52;23.67;;;15.98;;
71767;SDS011;59604;52.138;5.446;2022-08-19T13:48:22;22.23;;;15.63;;
71767;SDS011;59604;52.138;5.446;2022-08-19T13:50:49;23.30;;;15.55;;
71767;SDS011;59604;52.138;5.446;2022-08-19T13:53:16;24.98;;;16.55;;
71767;SDS011;59604;52.138;5.446;2022-08-19T13:55:43;26.20;;;15.88;;
71767;SDS011;59604;52.138;5.446;2022-08-19T13:58:10;25.38;;;15.95;;
71767;SDS011;59604;52.138;5.446;2022-08-19T14:00:39;25.02;;;15.60;;
71767;SDS011;59604;52.138;5.446;2022-08-19T14:03:07;25.88;;;15.93;;
71767;SDS011;59604;52.138;5.446;2022-08-19T14:05:34;24.20;;;14.88;;
71767;SDS011;59604;52.138;5.446;2022-08-19T14:08:01;26.02;;;16.98;;
71767;SDS011;59604;52.138;5.446;2022-08-19T14:10:28;20.40;;;13.82;;
71767;SDS011;59604;52.138;5.446;2022-08-19T14:12:57;18.27;;;11.98;;
71767;SDS011;59604;52.138;5.446;2022-08-19T14:15:26;18.15;;;11.20;;
71767;SDS011;59604;52.138;5.446;2022-08-19T14:17:54;11.70;;;8.07;;
71767;SDS011;59604;52.138;5.446;2022-08-19T14:20:21;10.65;;;7.63;;
71767;SDS011;59604;52.138;5.446;2022-08-19T14:22:52;10.65;;;7.10;;
71767;SDS011;59604;52.138;5.446;2022-08-19T14:25:24;11.85;;;6.95;;
71767;SDS011;59604;52.138;5.446;2022-08-19T14:27:52;11.27;;;6.70;;
71767;SDS011;59604;52.138;5.446;2022-08-19T14:30:24;11.45;;;7.60;;
71767;SDS011;59604;52.138;5.446;2022-08-19T14:32:55;14.13;;;9.00;;
71767;SDS011;59604;52.138;5.446;2022-08-19T14:35:22;17.40;;;8.98;;
71767;SDS011;59604;52.138;5.446;2022-08-19T14:37:49;14.80;;;9.50;;
71767;SDS011;59604;52.138;5.446;2022-08-19T14:40:17;16.45;;;9.57;;
71767;SDS011;59604;52.138;5.446;2022-08-19T14:42:47;14.55;;;9.77;;
71767;SDS011;59604;52.138;5.446;2022-08-19T14:45:14;16.23;;;10.30;;
71767;SDS011;59604;52.138;5.446;2022-08-19T14:47:41;16.88;;;9.75;;
71767;SDS011;59604;52.138;5.446;2022-08-19T14:50:10;16.92;;;10.02;;
71767;SDS011;59604;52.138;5.446;2022-08-19T14:52:44;15.05;;;9.80;;
71767;SDS011;59604;52.138;5.446;2022-08-19T14:55:15;14.88;;;9.45;;
71767;SDS011;59604;52.138;5.446;2022-08-19T14:57:43;14.38;;;8.90;;
71767;SDS011;59604;52.138;5.446;2022-08-19T15:00:11;14.23;;;8.93;;
71767;SDS011;59604;52.138;5.446;2022-08-19T15:02:39;12.55;;;8.30;;
71767;SDS011;59604;52.138;5.446;2022-08-19T15:07:33;12.55;;;8.35;;
71767;SDS011;59604;52.138;5.446;2022-08-19T15:10:00;14.20;;;8.38;;
71767;SDS011;59604;52.138;5.446;2022-08-19T15:12:27;12.18;;;7.88;;
71767;SDS011;59604;52.138;5.446;2022-08-19T15:14:53;12.02;;;8.10;;
71767;SDS011;59604;52.138;5.446;2022-08-19T15:17:24;9.75;;;6.97;;
71767;SDS011;59604;52.138;5.446;2022-08-19T15:20:12;10.27;;;7.13;;
71767;SDS011;59604;52.138;5.446;2022-08-19T15:22:40;9.93;;;6.70;;
71767;SDS011;59604;52.138;5.446;2022-08-19T15:25:08;9.27;;;7.10;;
71767;SDS011;59604;52.138;5.446;2022-08-19T15:27:39;9.50;;;6.63;;
71767;SDS011;59604;52.138;5.446;2022-08-19T15:30:06;9.60;;;6.80;;
71767;SDS011;59604;52.138;5.446;2022-08-19T15:32:34;9.20;;;6.38;;
71767;SDS011;59604;52.138;5.446;2022-08-19T15:35:03;8.88;;;6.00;;
71767;SDS011;59604;52.138;5.446;2022-08-19T15:37:31;10.27;;;7.30;;
71767;SDS011;59604;52.138;5.446;2022-08-19T15:40:02;8.48;;;6.38;;